Time;durP1;ratioP1;P1;durP2;ratioP2;P2;SDS_P1;SDS_P2;PMS_P1;PMS_P2;Temp;Humidity;BMP_temperature;BMP_pressure;BME280_temperature;BME280_humidity;BME280_pressure;Samples;Min_cycle;Max_cycle;Signal;HPM_P1;HPM_P2
2023/08/15 00:01:58;;;;;;;;;;;;;;;27.83;57.06;101425.75;5112220;27;20459;-85
2023/08/15 00:04:24;;;;;;;;;;;;;;;27.83;56.63;101423.06;5130167;27;19915;-86
2023/08/15 00:06:49;;;;;;;;;;;;;;;27.82;56.78;101427.56;5120863;27;20400;-86
2023/08/15 00:09:15;;;;;;;;;;;;;;;27.78;57.02;101425.78;5114886;27;19916;-86
2023/08/15 00:11:41;;;;;;;;;;;;;;;27.75;57.24;101427.59;5111336;28;20300;-86
2023/08/15 00:14:06;;;;;;;;;;;;;;;27.79;57.10;101432.03;5116409;27;20305;-87
2023/08/15 00:16:32;;;;;;;;;;;;;;;27.82;57.19;101427.56;5095304;28;19916;-87
2023/08/15 00:18:57;;;;;;;;;;;;;;;27.84;57.13;101432.91;5092739;28;20393;-86
2023/08/15 00:21:23;;;;;;;;;;;;;;;27.79;57.14;101432.03;5083469;28;20425;-88
2023/08/15 00:23:48;;;;;;;;;;;;;;;27.79;57.26;101418.63;5075455;28;20387;-87
2023/08/15 00:26:14;;;;;;;;;;;;;;;27.81;56.84;101420.41;5100453;28;19939;-87
2023/08/15 00:28:39;;;;;;;;;;;;;;;27.78;57.18;101406.13;5092935;28;19926;-87
2023/08/15 00:31:05;;;;;;;;;;;;;;;27.77;57.00;101407.94;5098002;28;20021;-88
2023/08/15 00:33:30;;;;;;;;;;;;;;;27.80;57.23;101398.94;5089730;28;20285;-87
2023/08/15 00:35:56;;;;;;;;;;;;;;;27.78;57.06;101403.44;5079181;28;19956;-87
2023/08/15 00:38:21;;;;;;;;;;;;;;;27.71;57.21;101391.84;5099528;28;20316;-87
2023/08/15 00:40:47;;;;;;;;;;;;;;;27.67;57.48;101378.47;5072882;28;20384;-87
2023/08/15 00:43:17;;;;;;;;;;;;;;;27.65;57.79;101369.56;5089664;28;19962;-87
2023/08/15 00:45:42;;;;;;;;;;;;;;;27.62;58.02;101362.38;5103966;28;19947;-86
2023/08/15 00:48:08;;;;;;;;;;;;;;;27.59;57.79;101382.09;5096858;28;19962;-87
2023/08/15 00:50:33;;;;;;;;;;;;;;;27.57;58.51;101377.63;5102950;28;19918;-87
2023/08/15 00:52:59;;;;;;;;;;;;;;;27.69;57.74;101376.69;5089877;28;20290;-86
2023/08/15 00:55:24;;;;;;;;;;;;;;;27.69;58.38;101374.00;5089779;28;19923;-86
2023/08/15 00:57:50;;;;;;;;;;;;;;;27.67;58.10;101387.41;5092994;28;19924;-86
2023/08/15 01:00:15;;;;;;;;;;;;;;;27.68;58.02;101386.50;5090893;28;20436;-85
2023/08/15 01:02:41;;;;;;;;;;;;;;;27.69;58.15;101387.41;5103225;28;20436;-85
2023/08/15 01:05:07;;;;;;;;;;;;;;;27.69;58.19;101376.69;5089801;28;20420;-84
2023/08/15 01:07:33;;;;;;;;;;;;;;;27.69;57.74;101377.56;5101385;28;19912;-85
2023/08/15 01:09:58;;;;;;;;;;;;;;;27.69;58.36;101374.88;5056094;28;20424;-86
2023/08/15 01:12:43;;;;;;;;;;;;;;;27.66;58.35;101382.03;5073098;28;19940;-86
2023/08/15 01:15:19;;;;;;;;;;;;;;;27.58;58.19;101377.63;5115113;28;20007;-85
2023/08/15 01:17:47;;;;;;;;;;;;;;;27.47;58.89;101371.44;5110314;28;19920;-85
2023/08/15 01:20:14;;;;;;;;;;;;;;;27.54;59.38;101372.31;5122409;27;19915;-87
2023/08/15 01:22:41;;;;;;;;;;;;;;;27.55;58.97;101369.59;5093440;28;19919;-86
2023/08/15 01:25:07;;;;;;;;;;;;;;;27.59;59.52;101360.63;5109879;27;20301;-85
2023/08/15 01:27:32;;;;;;;;;;;;;;;27.51;59.65;101369.63;5112062;28;19918;-86
2023/08/15 01:29:59;;;;;;;;;;;;;;;27.57;59.16;101373.16;5122836;28;19912;-87
2023/08/15 01:32:39;;;;;;;;;;;;;;;27.54;59.54;101366.94;5121708;28;19920;-86
2023/08/15 01:35:07;;;;;;;;;;;;;;;27.50;59.95;101363.38;5116219;27;19919;-86
2023/08/15 01:37:32;;;;;;;;;;;;;;;27.51;59.86;101356.22;5116993;27;19922;-85
2023/08/15 01:39:58;;;;;;;;;;;;;;;27.53;59.91;101357.97;5123688;27;19991;-86
2023/08/15 01:42:24;;;;;;;;;;;;;;;27.44;60.47;101352.69;5113496;28;19912;-86
2023/08/15 01:44:50;;;;;;;;;;;;;;;27.49;60.40;101344.59;5113396;28;19916;-86
2023/08/15 01:47:15;;;;;;;;;;;;;;;27.53;60.76;101343.69;5113554;28;20388;-86
2023/08/15 01:49:41;;;;;;;;;;;;;;;27.56;60.21;101341.00;5126318;27;19919;-86
2023/08/15 01:52:06;;;;;;;;;;;;;;;27.55;60.49;101340.06;5115412;27;19916;-88
2023/08/15 01:54:32;;;;;;;;;;;;;;;27.54;60.24;101338.31;5113483;28;19911;-89
2023/08/15 01:56:57;;;;;;;;;;;;;;;27.52;60.61;101326.69;5114202;28;20296;-88
2023/08/15 01:59:23;;;;;;;;;;;;;;;27.51;60.76;101332.94;5095981;28;19916;-88
2023/08/15 02:01:48;;;;;;;;;;;;;;;27.46;61.04;101332.09;5113310;27;19912;-88
2023/08/15 02:04:14;;;;;;;;;;;;;;;27.51;60.94;101327.59;5127700;27;19919;-88
2023/08/15 02:06:39;;;;;;;;;;;;;;;27.53;60.81;101325.78;5095936;28;19919;-89
2023/08/15 02:09:05;;;;;;;;;;;;;;;27.43;61.54;101332.09;5114219;28;19916;-89
2023/08/15 02:11:30;;;;;;;;;;;;;;;27.46;60.86;101325.84;5113095;27;20381;-89
2023/08/15 02:13:56;;;;;;;;;;;;;;;27.47;60.91;101330.31;5088738;28;19924;-90
2023/08/15 02:16:23;;;;;;;;;;;;;;;27.51;60.74;101338.31;5075938;28;19917;-91
2023/08/15 02:18:48;;;;;;;;;;;;;;;27.53;60.83;101327.59;5092733;27;19920;-91
2023/08/15 02:21:14;;;;;;;;;;;;;;;27.53;60.92;101322.22;5092774;28;20399;-89
2023/08/15 02:23:39;;;;;;;;;;;;;;;27.55;60.58;101328.47;5101047;28;20333;-89
2023/08/15 02:26:05;;;;;;;;;;;;;;;27.59;60.40;101330.22;5093500;28;20400;-88
2023/08/15 02:28:31;;;;;;;;;;;;;;;27.56;60.41;101322.22;5093286;28;19998;-88
2023/08/15 02:30:56;;;;;;;;;;;;;;;27.56;60.41;101323.09;5092743;28;19972;-88
2023/08/15 02:33:22;;;;;;;;;;;;;;;27.53;60.89;101322.22;5093584;28;19911;-88
2023/08/15 02:35:56;;;;;;;;;;;;;;;27.53;60.71;101316.84;5109527;28;19919;-87
2023/08/15 02:38:25;;;;;;;;;;;;;;;27.56;60.46;101312.38;5101349;28;20382;-87
2023/08/15 02:40:53;;;;;;;;;;;;;;;27.56;60.43;101324.91;5101513;28;19929;-86
2023/08/15 02:43:18;;;;;;;;;;;;;;;27.55;60.49;101329.34;5095125;28;19918;-87
2023/08/15 02:45:44;;;;;;;;;;;;;;;27.57;60.61;101335.59;5093172;28;20607;-88
2023/08/15 02:48:10;;;;;;;;;;;;;;;27.57;60.49;101321.28;5098142;28;19922;-88
2023/08/15 02:50:35;;;;;;;;;;;;;;;27.54;61.00;101326.69;5094735;28;19920;-86
2023/08/15 02:53:01;;;;;;;;;;;;;;;27.47;60.75;101335.66;5099999;28;19988;-87
2023/08/15 02:55:29;;;;;;;;;;;;;;;27.51;61.10;101337.44;5098029;28;20011;-87
2023/08/15 02:57:54;;;;;;;;;;;;;;;27.52;60.66;101333.88;5099757;28;19924;-87
2023/08/15 03:00:19;;;;;;;;;;;;;;;27.46;61.17;101342.84;5093601;28;20301;-88
2023/08/15 03:02:45;;;;;;;;;;;;;;;27.46;60.94;101331.22;5104299;28;19938;-87
2023/08/15 03:05:13;;;;;;;;;;;;;;;27.46;60.86;101328.53;5101887;28;20217;-86
2023/08/15 03:07:38;;;;;;;;;;;;;;;27.47;61.00;101320.47;5092487;28;19952;-86
2023/08/15 03:10:03;;;;;;;;;;;;;;;27.45;60.66;101322.25;5092659;28;19912;-86
2023/08/15 03:12:29;;;;;;;;;;;;;;;27.39;60.98;101309.81;5095828;28;20361;-85
2023/08/15 03:14:56;;;;;;;;;;;;;;;27.38;61.34;101318.72;5112582;27;19928;-86
2023/08/15 03:17:22;;;;;;;;;;;;;;;27.37;61.13;101330.38;5098841;27;20301;-87
2023/08/15 03:19:47;;;;;;;;;;;;;;;27.36;61.26;101333.94;5116279;27;20623;-86
2023/08/15 03:22:12;;;;;;;;;;;;;;;27.41;61.17;101321.41;5094431;28;19972;-84
2023/08/15 03:24:38;;;;;;;;;;;;;;;27.44;60.76;101331.22;5112691;28;19912;-85
2023/08/15 03:27:03;;;;;;;;;;;;;;;27.48;60.97;101335.66;5115919;27;19923;-85
2023/08/15 03:29:28;;;;;;;;;;;;;;;27.48;60.91;101335.66;5097085;28;19920;-86
2023/08/15 03:31:57;;;;;;;;;;;;;;;27.46;60.76;101340.16;5112461;28;19975;-87
2023/08/15 03:34:23;;;;;;;;;;;;;;;27.41;60.91;101340.19;5126448;27;19911;-84
2023/08/15 03:36:48;;;;;;;;;;;;;;;27.44;60.77;101339.28;5112511;28;20312;-86
2023/08/15 03:39:14;;;;;;;;;;;;;;;27.44;60.73;101338.38;5122448;27;20453;-87
2023/08/15 03:41:39;;;;;;;;;;;;;;;27.38;60.93;101342.88;5107030;27;19916;-86
2023/08/15 03:44:05;;;;;;;;;;;;;;;27.44;60.64;101320.50;5124498;27;20373;-87
2023/08/15 03:46:30;;;;;;;;;;;;;;;27.40;60.82;101337.50;5126346;27;20303;-88
2023/08/15 03:48:56;;;;;;;;;;;;;;;27.41;60.97;101332.16;5125843;27;19933;-87
2023/08/15 03:51:21;;;;;;;;;;;;;;;27.42;60.45;101339.28;5111044;28;19916;-87
2023/08/15 03:53:46;;;;;;;;;;;;;;;27.51;60.53;101332.94;5084645;27;19915;-88
2023/08/15 03:56:12;;;;;;;;;;;;;;;27.41;60.52;101347.31;5127104;27;19922;-86
2023/08/15 03:58:37;;;;;;;;;;;;;;;27.41;60.39;101350.00;5114728;27;19919;-86
2023/08/15 04:01:03;;;;;;;;;;;;;;;27.45;60.68;101362.50;5126249;27;20409;-86
2023/08/15 04:03:28;;;;;;;;;;;;;;;27.49;60.54;101372.31;5128097;27;20384;-86
2023/08/15 04:05:54;;;;;;;;;;;;;;;27.44;60.32;101379.50;5123637;27;20285;-84
2023/08/15 04:08:19;;;;;;;;;;;;;;;27.49;60.64;101368.75;5099045;27;20447;-84
2023/08/15 04:10:45;;;;;;;;;;;;;;;27.47;60.32;101346.41;5113544;27;20388;-84
2023/08/15 04:13:11;;;;;;;;;;;;;;;27.47;60.72;101330.31;5125796;27;19943;-85
2023/08/15 04:15:37;;;;;;;;;;;;;;;27.46;60.79;101323.19;5128462;27;19915;-84
2023/08/15 04:18:06;;;;;;;;;;;;;;;27.36;60.84;101311.59;5115254;27;19927;-85
2023/08/15 04:20:35;;;;;;;;;;;;;;;27.36;61.11;101299.06;5125447;27;20056;-86
2023/08/15 04:23:00;;;;;;;;;;;;;;;27.34;60.59;101332.19;5111991;28;19919;-86
2023/08/15 04:25:26;;;;;;;;;;;;;;;27.29;61.01;101345.63;5121498;27;19923;-86
2023/08/15 04:27:51;;;;;;;;;;;;;;;27.37;60.54;101343.78;5115994;27;20367;-86
2023/08/15 04:30:18;;;;;;;;;;;;;;;27.44;60.67;101336.59;5115160;27;20426;-87
2023/08/15 04:32:44;;;;;;;;;;;;;;;27.38;60.80;101339.31;5118748;27;20354;-86
2023/08/15 04:35:10;;;;;;;;;;;;;;;27.37;60.76;101342.91;5118254;27;20320;-86
2023/08/15 04:37:35;;;;;;;;;;;;;;;27.40;60.66;101364.34;5121853;27;19915;-86
2023/08/15 04:40:01;;;;;;;;;;;;;;;27.41;60.48;101376.81;5116941;27;20640;-86
2023/08/15 04:42:26;;;;;;;;;;;;;;;27.37;60.83;101373.28;5116783;27;19958;-86
2023/08/15 04:44:52;;;;;;;;;;;;;;;27.36;60.81;101376.84;5118849;27;19919;-86
2023/08/15 04:47:19;;;;;;;;;;;;;;;27.31;60.84;101380.50;5122921;27;20373;-84
2023/08/15 04:49:44;;;;;;;;;;;;;;;27.36;60.34;101384.91;5118296;27;19965;-86
2023/08/15 04:52:13;;;;;;;;;;;;;;;27.37;60.45;101377.78;5129805;27;19924;-84
2023/08/15 04:54:39;;;;;;;;;;;;;;;27.31;60.75;101370.66;5108394;28;19915;-84
2023/08/15 04:57:04;;;;;;;;;;;;;;;27.29;60.90;101342.06;5116962;27;19923;-83
2023/08/15 04:59:30;;;;;;;;;;;;;;;27.30;60.96;101344.72;5125652;27;19948;-83
2023/08/15 05:01:55;;;;;;;;;;;;;;;27.27;60.67;101358.16;5102224;28;19930;-83
2023/08/15 05:04:21;;;;;;;;;;;;;;;27.33;60.63;101352.75;5115210;27;19916;-83
2023/08/15 05:06:46;;;;;;;;;;;;;;;27.37;60.32;101348.28;5117026;27;19934;-84
2023/08/15 05:09:11;;;;;;;;;;;;;;;27.34;60.38;101341.09;5122251;27;19920;-83
2023/08/15 05:11:37;;;;;;;;;;;;;;;27.36;60.25;101323.22;5128131;27;20369;-83
2023/08/15 05:14:02;;;;;;;;;;;;;;;27.35;60.05;101332.19;5113979;27;20389;-84
2023/08/15 05:16:28;;;;;;;;;;;;;;;27.32;60.48;101336.66;5119700;27;19964;-83
2023/08/15 05:18:53;;;;;;;;;;;;;;;27.38;60.36;101334.81;5121992;27;19920;-80
2023/08/15 05:21:19;;;;;;;;;;;;;;;27.38;60.06;101333.94;5121254;27;20400;-86
2023/08/15 05:23:44;;;;;;;;;;;;;;;27.36;60.12;101331.25;5123119;27;20415;-85
2023/08/15 05:26:10;;;;;;;;;;;;;;;27.39;60.08;101327.69;5128572;27;19915;-87
2023/08/15 05:28:35;;;;;;;;;;;;;;;27.35;60.31;101310.72;5118460;27;19990;-86
2023/08/15 05:31:01;;;;;;;;;;;;;;;27.36;60.22;101311.59;5131524;27;20311;-87
2023/08/15 05:33:26;;;;;;;;;;;;;;;27.21;60.15;101278.59;5117782;27;20304;-88
2023/08/15 05:35:52;;;;;;;;;;;;;;;27.33;60.52;101304.47;5132153;27;20380;-85
2023/08/15 05:38:17;;;;;;;;;;;;;;;27.34;60.36;101302.69;5124511;27;19916;-86
2023/08/15 05:40:42;;;;;;;;;;;;;;;27.36;60.17;101317.84;5113822;27;19970;-86
2023/08/15 05:43:08;;;;;;;;;;;;;;;27.37;60.04;101302.69;5106850;28;19923;-85
2023/08/15 05:45:33;;;;;;;;;;;;;;;27.31;59.97;101300.91;5128552;27;19912;-85
2023/08/15 05:47:59;;;;;;;;;;;;;;;27.34;59.92;101267.81;5114712;28;20400;-85
2023/08/15 05:50:25;;;;;;;;;;;;;;;27.31;60.11;101249.06;5131225;27;20441;-85
2023/08/15 05:52:50;;;;;;;;;;;;;;;27.27;60.56;101236.59;5106815;27;19970;-84
2023/08/15 05:55:15;;;;;;;;;;;;;;;27.26;60.24;101243.72;5118273;27;19912;-85
2023/08/15 05:57:41;;;;;;;;;;;;;;;27.25;60.32;101255.38;5102709;28;20389;-85
2023/08/15 06:00:08;;;;;;;;;;;;;;;27.28;60.53;101283.94;5114865;28;19965;-84
2023/08/15 06:02:36;;;;;;;;;;;;;;;27.30;60.53;101307.16;5126067;27;20384;-84
2023/08/15 06:05:02;;;;;;;;;;;;;;;27.29;60.47;101325.97;5113612;27;19995;-85
2023/08/15 06:07:29;;;;;;;;;;;;;;;27.26;60.50;101352.78;5096362;28;19958;-85
2023/08/15 06:09:55;;;;;;;;;;;;;;;27.30;60.29;101347.38;5106094;27;19915;-83
2023/08/15 06:12:22;;;;;;;;;;;;;;;27.26;59.96;101347.44;5099481;28;19919;-85
2023/08/15 06:14:48;;;;;;;;;;;;;;;27.28;60.13;101365.28;5126084;27;20052;-86
2023/08/15 06:17:13;;;;;;;;;;;;;;;27.29;60.26;101379.59;5117274;27;19993;-83
2023/08/15 06:19:39;;;;;;;;;;;;;;;27.31;59.79;101376.00;5097098;28;20393;-84
2023/08/15 06:22:04;;;;;;;;;;;;;;;27.35;59.94;101368.84;5095506;28;20018;-85
2023/08/15 06:24:34;;;;;;;;;;;;;;;27.35;59.88;101367.03;5115964;27;19922;-85
2023/08/15 06:27:01;;;;;;;;;;;;;;;27.33;60.01;101365.28;5141109;27;19915;-86
2023/08/15 06:29:26;;;;;;;;;;;;;;;27.34;60.08;101342.91;5126801;27;20022;-87
2023/08/15 06:32:02;;;;;;;;;;;;;;;27.32;60.02;101350.97;5113034;27;20014;-85
2023/08/15 06:34:31;;;;;;;;;;;;;;;27.34;60.05;101361.69;5112650;27;20448;-87
2023/08/15 06:36:57;;;;;;;;;;;;;;;27.35;60.21;101372.41;5119373;27;19999;-84
2023/08/15 06:39:27;;;;;;;;;;;;;;;27.28;60.09;101361.72;5132307;27;19926;-84
2023/08/15 06:41:52;;;;;;;;;;;;;;;27.29;60.46;101340.25;5117313;27;19938;-83
2023/08/15 06:44:17;;;;;;;;;;;;;;;27.32;60.12;101339.34;5113017;27;19911;-82
2023/08/15 06:46:44;;;;;;;;;;;;;;;27.31;60.21;101338.47;5132167;27;19989;-85
2023/08/15 06:49:09;;;;;;;;;;;;;;;27.29;60.58;101329.53;5137466;27;19911;-83
2023/08/15 06:51:37;;;;;;;;;;;;;;;27.36;60.40;101319.66;5124248;27;19919;-84
2023/08/15 06:54:02;;;;;;;;;;;;;;;27.35;60.10;101332.19;5098803;27;19927;-83
2023/08/15 06:56:30;;;;;;;;;;;;;;;27.41;60.41;101363.41;5112471;28;19912;-83
2023/08/15 06:58:55;;;;;;;;;;;;;;;27.42;60.12;101375.94;5127870;27;20372;-83
2023/08/15 07:01:33;;;;;;;;;;;;;;;27.40;60.18;101392.03;5127124;27;19922;-84
2023/08/15 07:03:59;;;;;;;;;;;;;;;27.43;59.95;101385.75;5126869;27;20019;-84
2023/08/15 07:06:29;;;;;;;;;;;;;;;27.40;59.44;101367.00;5118574;27;19955;-84
2023/08/15 07:08:55;;;;;;;;;;;;;;;27.42;59.90;101354.47;5114370;27;19912;-85
2023/08/15 07:11:21;;;;;;;;;;;;;;;27.41;60.07;101361.66;5129515;27;19911;-87
2023/08/15 07:13:46;;;;;;;;;;;;;;;27.39;59.95;101350.03;5111707;27;19920;-83
2023/08/15 07:16:11;;;;;;;;;;;;;;;27.43;60.03;101358.94;5108226;28;20329;-84
2023/08/15 07:18:37;;;;;;;;;;;;;;;27.44;59.55;101366.09;5095309;28;19955;-84
2023/08/15 07:21:03;;;;;;;;;;;;;;;27.45;59.29;101373.22;5095441;27;20422;-85
2023/08/15 07:23:30;;;;;;;;;;;;;;;27.46;59.87;101374.16;5095624;28;20443;-85
2023/08/15 07:25:56;;;;;;;;;;;;;;;27.51;59.49;101386.59;5094993;28;19924;-84
2023/08/15 07:28:24;;;;;;;;;;;;;;;27.48;59.84;101378.59;5098420;28;19911;-85
2023/08/15 07:31:01;;;;;;;;;;;;;;;27.43;59.85;101348.19;5110875;28;19918;-83
2023/08/15 07:33:31;;;;;;;;;;;;;;;27.52;59.46;101331.19;5101233;28;19923;-83
2023/08/15 07:35:57;;;;;;;;;;;;;;;27.47;59.49;101325.81;5098971;28;19920;-84
2023/08/15 07:38:22;;;;;;;;;;;;;;;27.46;59.84;101324.06;5089302;28;19920;-86
2023/08/15 07:40:48;;;;;;;;;;;;;;;27.40;59.78;101310.69;5075324;28;19962;-83
2023/08/15 07:43:13;;;;;;;;;;;;;;;27.39;59.89;101309.81;5094109;28;19919;-85
2023/08/15 07:45:39;;;;;;;;;;;;;;;27.44;59.75;101333.91;5078548;28;19916;-84
2023/08/15 07:48:05;;;;;;;;;;;;;;;27.49;59.66;101329.38;5101993;28;19919;-84
2023/08/15 07:50:30;;;;;;;;;;;;;;;27.46;59.77;101283.81;5095657;28;19912;-84
2023/08/15 07:52:59;;;;;;;;;;;;;;;27.50;59.67;101292.75;5110269;28;19930;-84
2023/08/15 07:55:25;;;;;;;;;;;;;;;27.45;60.14;101311.53;5099911;28;19923;-83
2023/08/15 07:57:51;;;;;;;;;;;;;;;27.46;59.83;101361.63;5091294;28;19920;-83
2023/08/15 08:00:18;;;;;;;;;;;;;;;27.49;59.83;101392.88;5091253;28;19947;-84
2023/08/15 08:02:46;;;;;;;;;;;;;;;27.49;59.66;101387.53;5092687;28;19923;-84
2023/08/15 08:05:12;;;;;;;;;;;;;;;27.55;59.80;101384.81;5092629;28;20381;-83
2023/08/15 08:07:39;;;;;;;;;;;;;;;27.55;59.68;101376.75;5111713;28;19911;-83
2023/08/15 08:10:05;;;;;;;;;;;;;;;27.51;59.93;101373.19;5102342;28;19918;-83
2023/08/15 08:12:30;;;;;;;;;;;;;;;27.53;60.03;101391.97;5099361;28;20035;-85
2023/08/15 08:14:56;;;;;;;;;;;;;;;27.52;60.30;101383.03;5108699;28;19931;-83
2023/08/15 08:17:22;;;;;;;;;;;;;;;27.51;60.30;101365.16;5116949;27;19916;-83
2023/08/15 08:19:47;;;;;;;;;;;;;;;27.51;59.89;101364.25;5104150;27;19916;-81
2023/08/15 08:22:15;;;;;;;;;;;;;;;27.51;60.15;101350.84;5113888;28;19923;-82
2023/08/15 08:24:40;;;;;;;;;;;;;;;27.56;60.28;101343.69;5110181;28;19915;-82
2023/08/15 08:27:11;;;;;;;;;;;;;;;27.56;59.88;101339.19;5108948;28;19985;-81
2023/08/15 08:29:37;;;;;;;;;;;;;;;27.55;60.15;101334.72;5116846;27;19916;-82
2023/08/15 08:32:02;;;;;;;;;;;;;;;27.56;60.40;101336.50;5112285;28;20486;-84
2023/08/15 08:34:27;;;;;;;;;;;;;;;27.55;60.19;101348.13;5097180;28;19911;-83
2023/08/15 08:36:53;;;;;;;;;;;;;;;27.56;60.14;101357.09;5115950;27;19961;-83
2023/08/15 08:39:18;;;;;;;;;;;;;;;27.55;60.27;101342.75;5139961;27;20393;-83
2023/08/15 08:41:44;;;;;;;;;;;;;;;27.53;60.31;101333.84;5130668;27;20430;-83
2023/08/15 08:44:13;;;;;;;;;;;;;;;27.56;60.72;101338.31;5096010;27;19923;-82
2023/08/15 08:46:40;;;;;;;;;;;;;;;27.58;60.12;101344.53;5134027;27;19967;-84
2023/08/15 08:49:06;;;;;;;;;;;;;;;27.56;60.55;101328.47;5114110;27;19916;-83
2023/08/15 08:51:33;;;;;;;;;;;;;;;27.57;60.09;101324.88;5119895;27;20305;-83
2023/08/15 08:53:58;;;;;;;;;;;;;;;27.57;60.09;101330.22;5112859;27;19965;-83
2023/08/15 08:56:25;;;;;;;;;;;;;;;27.58;60.03;101325.75;5100152;27;19927;-83
2023/08/15 08:58:55;;;;;;;;;;;;;;;27.56;60.54;101322.22;5119317;27;19919;-84
2023/08/15 09:01:22;;;;;;;;;;;;;;;27.58;60.58;101345.44;5113510;27;19916;-82
2023/08/15 09:03:47;;;;;;;;;;;;;;;27.57;60.45;101348.13;5114296;28;20360;-86
2023/08/15 09:06:15;;;;;;;;;;;;;;;27.59;60.72;101343.63;5107221;27;19960;-82
2023/08/15 09:08:40;;;;;;;;;;;;;;;27.58;60.91;101336.47;5129535;27;19922;-82
2023/08/15 09:11:06;;;;;;;;;;;;;;;27.60;60.95;101343.63;5124652;27;19919;-84
2023/08/15 09:13:31;;;;;;;;;;;;;;;27.59;61.12;101335.59;5100306;27;19920;-81
2023/08/15 09:15:58;;;;;;;;;;;;;;;27.61;61.21;101342.72;5125889;27;20427;-82
2023/08/15 09:18:28;;;;;;;;;;;;;;;27.61;60.83;101348.09;5099171;28;19915;-83
2023/08/15 09:20:54;;;;;;;;;;;;;;;27.61;60.92;101347.19;5114939;27;20297;-83
2023/08/15 09:23:20;;;;;;;;;;;;;;;27.61;60.96;101348.09;5127717;27;20027;-83
2023/08/15 09:25:47;;;;;;;;;;;;;;;27.61;60.87;101342.72;5089747;27;20391;-82
2023/08/15 09:28:14;;;;;;;;;;;;;;;27.65;61.13;101315.88;5128751;27;19919;-82
2023/08/15 09:30:48;;;;;;;;;;;;;;;27.63;61.20;101293.53;5124145;27;19915;-83
2023/08/15 09:33:14;;;;;;;;;;;;;;;27.60;61.26;101286.38;5106164;27;19938;-82
2023/08/15 09:35:39;;;;;;;;;;;;;;;27.64;61.29;101290.81;5115483;27;20377;-83
2023/08/15 09:38:14;;;;;;;;;;;;;;;27.65;61.29;101297.09;5131880;27;19927;-83
2023/08/15 09:40:42;;;;;;;;;;;;;;;27.64;61.24;101309.59;5100291;27;19924;-81
2023/08/15 09:43:13;;;;;;;;;;;;;;;27.66;60.97;101312.28;5114388;27;19919;-82
2023/08/15 09:45:38;;;;;;;;;;;;;;;27.67;61.63;101303.34;5082349;28;19919;-81
2023/08/15 09:48:04;;;;;;;;;;;;;;;27.68;61.24;101326.56;5132057;27;19911;-83
2023/08/15 09:50:29;;;;;;;;;;;;;;;27.70;61.23;101330.13;5115294;27;20397;-81
2023/08/15 09:52:55;;;;;;;;;;;;;;;27.64;61.56;101332.88;5108228;27;20285;-81
2023/08/15 09:55:26;;;;;;;;;;;;;;;27.65;61.25;101354.34;5120561;27;19922;-83
2023/08/15 09:57:52;;;;;;;;;;;;;;;27.70;61.45;101367.72;5124866;27;19939;-83
2023/08/15 10:00:17;;;;;;;;;;;;;;;27.70;61.44;101362.34;5141647;27;19940;-82
2023/08/15 10:02:54;;;;;;;;;;;;;;;27.71;61.70;101353.41;5126208;27;20381;-83
2023/08/15 10:05:20;;;;;;;;;;;;;;;27.73;61.24;101352.47;5096412;28;19912;-83
2023/08/15 10:07:46;;;;;;;;;;;;;;;27.71;61.38;101332.81;5113728;27;19980;-82
2023/08/15 10:10:13;;;;;;;;;;;;;;;27.74;61.43;101334.59;5107022;28;19920;-83
2023/08/15 10:12:40;;;;;;;;;;;;;;;27.76;61.52;101349.75;5142379;27;19916;-82
2023/08/15 10:15:06;;;;;;;;;;;;;;;27.75;61.76;101352.44;5134805;27;19923;-83
2023/08/15 10:17:32;;;;;;;;;;;;;;;27.73;60.82;101338.16;5130081;27;19923;-83
2023/08/15 10:20:21;;;;;;;;;;;;;;;27.72;61.70;101318.47;5103807;27;19916;-83
2023/08/15 10:22:56;;;;;;;;;;;;;;;27.75;61.51;101302.38;5108643;27;19911;-82
2023/08/15 10:25:27;;;;;;;;;;;;;;;27.72;61.43;101304.19;5105212;27;20007;-82
2023/08/15 10:27:58;;;;;;;;;;;;;;;27.78;61.48;101312.19;5122438;27;19930;-82
2023/08/15 10:30:35;;;;;;;;;;;;;;;27.80;60.78;101331.84;5113649;27;20392;-85
2023/08/15 10:33:14;;;;;;;;;;;;;;;27.79;61.11;101335.41;5122468;27;19938;-83
2023/08/15 10:35:58;;;;;;;;;;;;;;;27.79;60.89;101325.59;5127054;27;19919;-84
2023/08/15 10:38:40;;;;;;;;;;;;;;;27.79;61.14;101338.09;5112769;27;19919;-84
2023/08/15 10:41:06;;;;;;;;;;;;;;;27.82;61.07;101320.19;5117612;27;19928;-82
2023/08/15 10:43:32;;;;;;;;;;;;;;;27.83;60.74;101339.88;5118542;27;19915;-83
2023/08/15 10:45:59;;;;;;;;;;;;;;;27.83;60.69;101358.66;5116104;27;19916;-84
2023/08/15 10:48:40;;;;;;;;;;;;;;;27.87;60.35;101356.88;5104378;27;19930;-85
2023/08/15 10:51:14;;;;;;;;;;;;;;;27.86;61.18;101381.94;5106242;27;19926;-83
2023/08/15 10:53:40;;;;;;;;;;;;;;;27.86;61.23;101392.69;5126060;27;19915;-83
2023/08/15 10:56:13;;;;;;;;;;;;;;;27.90;61.20;101386.38;5112926;27;19985;-83
2023/08/15 10:58:38;;;;;;;;;;;;;;;27.88;60.98;101366.72;5097693;27;19977;-82
2023/08/15 11:01:04;;;;;;;;;;;;;;;27.84;60.98;101346.16;5116634;27;19967;-83
2023/08/15 11:03:33;;;;;;;;;;;;;;;27.86;61.18;101331.84;5118400;27;19919;-84
2023/08/15 11:06:14;;;;;;;;;;;;;;;27.88;60.70;101311.25;5099046;27;19976;-83
2023/08/15 11:08:49;;;;;;;;;;;;;;;27.89;61.00;101269.16;5113899;27;20300;-82
2023/08/15 11:11:16;;;;;;;;;;;;;;;27.85;61.30;101211.91;5120606;27;20574;-82
2023/08/15 11:13:45;;;;;;;;;;;;;;;27.86;61.50;101215.53;5094963;27;19931;-83
2023/08/15 11:16:15;;;;;;;;;;;;;;;27.92;61.11;101277.19;5096792;27;19923;-82
2023/08/15 11:18:40;;;;;;;;;;;;;;;27.91;60.95;101288.84;5099665;28;19920;-82
2023/08/15 11:21:13;;;;;;;;;;;;;;;27.91;60.99;101246.78;5073755;28;20472;-82
2023/08/15 11:23:41;;;;;;;;;;;;;;;27.82;61.55;101226.25;5094518;28;19951;-81
2023/08/15 11:26:07;;;;;;;;;;;;;;;27.89;61.14;101236.97;5095423;28;19930;-83
2023/08/15 11:28:33;;;;;;;;;;;;;;;27.91;61.24;101265.56;5081205;28;19923;-82
2023/08/15 11:30:59;;;;;;;;;;;;;;;27.99;60.77;101312.03;5096282;28;19916;-83
2023/08/15 11:33:24;;;;;;;;;;;;;;;27.97;61.08;101337.09;5101502;28;20069;-83
2023/08/15 11:35:51;;;;;;;;;;;;;;;27.92;61.75;101353.25;5078253;28;19931;-83
2023/08/15 11:38:17;;;;;;;;;;;;;;;27.89;61.90;101325.53;5102805;28;19924;-83
2023/08/15 11:40:49;;;;;;;;;;;;;;;27.88;61.59;101313.03;5102251;27;20065;-85
2023/08/15 11:43:15;;;;;;;;;;;;;;;27.90;61.75;101279.91;5090341;28;19916;-83
2023/08/15 11:45:43;;;;;;;;;;;;;;;27.92;62.27;101256.63;5096167;28;20429;-84
2023/08/15 11:48:09;;;;;;;;;;;;;;;27.89;62.08;101216.38;5084888;28;20022;-84
2023/08/15 11:50:34;;;;;;;;;;;;;;;27.88;62.16;101233.41;5099260;27;19998;-83
2023/08/15 11:53:08;;;;;;;;;;;;;;;27.91;61.57;101296.88;5098300;28;19927;-84
2023/08/15 11:55:35;;;;;;;;;;;;;;;27.94;61.49;101316.56;5104060;27;19922;-82
2023/08/15 11:58:01;;;;;;;;;;;;;;;27.96;61.55;101335.31;5080952;28;19930;-83
2023/08/15 12:00:26;;;;;;;;;;;;;;;28.06;60.58;101346.88;5105272;27;19919;-83
2023/08/15 12:02:53;;;;;;;;;;;;;;;28.07;60.74;101357.59;5091491;28;19915;-83
2023/08/15 12:05:19;;;;;;;;;;;;;;;28.10;61.02;101344.13;5103942;28;19995;-82
2023/08/15 12:10:47;;;;;;;;;;;;;;;28.12;60.83;101360.25;5108980;27;19943;-82
2023/08/15 12:13:13;;;;;;;;;;;;;;;28.11;60.59;101337.88;5098510;28;20385;-84
2023/08/15 12:15:38;;;;;;;;;;;;;;;28.11;60.47;101321.75;5125102;27;19911;-84
2023/08/15 12:18:03;;;;;;;;;;;;;;;28.11;61.42;101305.66;5118934;27;19958;-84
2023/08/15 12:20:29;;;;;;;;;;;;;;;28.11;61.17;101294.00;5120835;27;20032;-83
2023/08/15 12:22:54;;;;;;;;;;;;;;;28.09;60.70;101326.25;5103047;27;20061;-84
2023/08/15 12:25:20;;;;;;;;;;;;;;;28.16;60.92;101341.41;5123979;27;19915;-83
2023/08/15 12:27:45;;;;;;;;;;;;;;;28.16;60.30;101348.56;5123447;27;20328;-83
2023/08/15 12:30:11;;;;;;;;;;;;;;;28.10;60.92;101328.03;5119296;27;19923;-84
2023/08/15 12:32:36;;;;;;;;;;;;;;;28.11;60.41;101297.59;5104759;27;19947;-83
2023/08/15 12:35:02;;;;;;;;;;;;;;;28.14;60.57;101300.22;5123726;27;20449;-83
2023/08/15 12:37:27;;;;;;;;;;;;;;;28.16;60.64;101310.97;5125172;27;20023;-80